Terminal Aerodrome Forecast
Issued by NWS Sioux Falls, SD

Home | Current Version | Previous Version | Graphics & Text | Print | Product List | Glossary On
Versions: 1 2 3 4 5 6 7 8 9 10 11 12 13 14 15 16 17 18 19 20 21 22 23 24 25 26 27 28 29
000
FTUS43 KFSD 310526
TAFSUX
TAF
KSUX 310526Z 3106/0106 13008KT 4SM BR SCT006 BKN200
      TEMPO 3111/3114 1SM BR BKN004
     FM311500 17011KT 6SM BR FEW004 BKN200
     FM311700 18013G19KT P6SM BKN200
     FM010000 15008KT P6SM SCT150
      AMD NOT SKED=

USA.gov is the U.S. government's official web portal to all federal, state and local government web resources and services.